createdAt,value
2022-12-26T00:01:58.050Z,101512.22
2022-12-26T00:04:48.338Z,101522.56
2022-12-26T00:07:14.741Z,101514.13
2022-12-26T00:09:42.990Z,101508.13
2022-12-26T00:12:10.839Z,101508.13
2022-12-26T00:14:41.734Z,101502.13
2022-12-26T00:17:09.884Z,101514.97
2022-12-26T00:19:37.791Z,101515.84
2022-12-26T00:22:05.637Z,101515.84
2022-12-26T00:24:33.986Z,101511.59
2022-12-26T00:27:01.822Z,101510.72
2022-12-26T00:29:29.652Z,101510.72
2022-12-26T00:32:01.004Z,101512.44
2022-12-26T00:34:29.054Z,101511.56
2022-12-26T00:36:57.239Z,101485.81
2022-12-26T00:39:27.045Z,101510.72
2022-12-26T00:41:54.903Z,101519.25
2022-12-26T00:44:23.061Z,101509.72
2022-12-26T00:46:53.770Z,101516.69
2022-12-26T00:49:21.656Z,101531.22
2022-12-26T00:51:49.902Z,101531.22
2022-12-26T00:54:17.803Z,101533.78
2022-12-26T00:56:45.708Z,101537.19
2022-12-26T00:59:13.975Z,101542.37
2022-12-26T01:01:42.015Z,101551.47
2022-12-26T01:04:09.861Z,101547.16
2022-12-26T01:06:41.300Z,101546.31
2022-12-26T01:09:12.596Z,101538.59
2022-12-26T01:11:41.236Z,101542.25
2022-12-26T01:14:16.379Z,101551.59
2022-12-26T01:16:46.874Z,101554.31
2022-12-26T01:19:15.124Z,101559.47
2022-12-26T01:21:43.401Z,101553.81
2022-12-26T01:24:11.661Z,101548.47
2022-12-26T01:26:39.603Z,101552.69
2022-12-26T01:29:07.486Z,101561.22
2022-12-26T01:31:35.869Z,101561.22
2022-12-26T01:34:03.679Z,101565.53
2022-12-26T01:36:31.540Z,101565.53
2022-12-26T01:38:59.802Z,101565.53
2022-12-26T01:41:30.585Z,101523.38
2022-12-26T01:44:02.801Z,101558.69
2022-12-26T01:46:45.227Z,101567.25
2022-12-26T01:49:36.540Z,101564.66
2022-12-26T01:52:10.122Z,101563.78
2022-12-26T01:54:43.071Z,101574.09
2022-12-26T01:57:17.967Z,101571.50
2022-12-26T01:59:48.020Z,101565.53
2022-12-26T02:02:18.227Z,101561.25
2022-12-26T02:05:08.873Z,101558.69
2022-12-26T02:07:41.238Z,101564.66
2022-12-26T02:10:14.762Z,101564.66
2022-12-26T02:12:42.727Z,101568.91
2022-12-26T02:15:31.866Z,101574.91
2022-12-26T02:17:59.811Z,101558.59
2022-12-26T02:20:55.488Z,101577.50
2022-12-26T02:24:00.036Z,101565.50
2022-12-26T02:26:58.764Z,101569.75
2022-12-26T02:29:43.622Z,101572.28
2022-12-26T02:32:11.855Z,101562.00
2022-12-26T02:34:47.745Z,101565.47
2022-12-26T02:37:55.632Z,101563.75
2022-12-26T02:40:33.423Z,101563.72
2022-12-26T02:43:15.260Z,101566.25
2022-12-26T02:46:04.357Z,101572.22
2022-12-26T02:48:46.631Z,101573.13
2022-12-26T02:51:48.065Z,101564.59
2022-12-26T02:54:56.347Z,101575.72
2022-12-26T02:57:49.291Z,101579.16
2022-12-26T03:00:38.380Z,101570.56
2022-12-26T03:03:42.092Z,101573.09
2022-12-26T03:06:39.241Z,101570.56
2022-12-26T03:09:53.710Z,101574.00
2022-12-26T03:13:01.477Z,101570.50
2022-12-26T03:15:55.452Z,101563.72
2022-12-26T03:18:58.451Z,101561.16
2022-12-26T03:21:20.802Z,101565.44
2022-12-26T03:23:51.935Z,101560.28
2022-12-26T03:26:42.755Z,101562.03
2022-12-26T03:29:37.359Z,101561.16
2022-12-26T03:32:08.769Z,101566.28
2022-12-26T03:34:45.888Z,101572.28
2022-12-26T03:37:25.615Z,101564.53
2022-12-26T03:40:49.339Z,101572.28
2022-12-26T03:44:19.368Z,101579.13
2022-12-26T03:47:16.898Z,101570.56
2022-12-26T03:50:06.416Z,101565.41
2022-12-26T03:53:27.893Z,101561.16
2022-12-26T03:56:32.712Z,101569.66
2022-12-26T03:59:38.415Z,101564.53
2022-12-26T04:02:29.079Z,101567.12
2022-12-26T04:05:18.165Z,101574.84
2022-12-26T04:08:18.932Z,101577.44
2022-12-26T04:11:14.167Z,101574.84
2022-12-26T04:14:12.225Z,101567.97
2022-12-26T04:17:19.688Z,101577.44
2022-12-26T04:19:56.388Z,101580.81
2022-12-26T04:22:57.865Z,101587.66
2022-12-26T04:25:51.713Z,101589.41
2022-12-26T04:28:40.261Z,101574.78
2022-12-26T04:31:52.147Z,101573.94
2022-12-26T04:34:52.348Z,101567.09
2022-12-26T04:37:44.712Z,101557.59
2022-12-26T04:40:41.794Z,101584.22
2022-12-26T04:43:47.050Z,101574.78
2022-12-26T04:46:21.401Z,101578.22
2022-12-26T04:49:10.727Z,101581.66
2022-12-26T04:51:39.395Z,101587.66
2022-12-26T04:54:07.721Z,101586.00
2022-12-26T04:56:35.980Z,101592.78
2022-12-26T04:59:04.281Z,101590.91
2022-12-26T05:01:50.615Z,101587.56
2022-12-26T05:04:38.612Z,101590.22
2022-12-26T05:07:35.893Z,101588.50
2022-12-26T05:10:10.634Z,101585.03
2022-12-26T05:12:38.473Z,101591.03
2022-12-26T05:15:10.765Z,101591.94
2022-12-26T05:17:57.408Z,101599.66
2022-12-26T05:20:44.031Z,101599.66
2022-12-26T05:23:38.486Z,101603.06
2022-12-26T05:26:28.869Z,101601.31
2022-12-26T05:29:00.487Z,101602.25
2022-12-26T05:31:35.059Z,101603.91
2022-12-26T05:34:10.891Z,101601.38
2022-12-26T05:36:45.914Z,101608.19
2022-12-26T05:39:14.103Z,101611.66
2022-12-26T05:41:43.109Z,101616.78
2022-12-26T05:44:11.837Z,101624.50
2022-12-26T05:46:42.749Z,101627.06
2022-12-26T05:49:11.234Z,101620.22
2022-12-26T05:51:39.079Z,101627.94
2022-12-26T05:54:06.913Z,101625.38
2022-12-26T05:56:35.145Z,101632.25
2022-12-26T05:59:03.071Z,101628.81
2022-12-26T06:01:31.141Z,101630.50
2022-12-26T06:04:00.504Z,101623.69
2022-12-26T06:06:29.381Z,101625.34
2022-12-26T06:08:58.003Z,101629.63
2022-12-26T06:11:27.319Z,101641.62
2022-12-26T06:13:55.977Z,101649.31
2022-12-26T06:16:24.275Z,101637.31
2022-12-26T06:18:52.591Z,101637.59
2022-12-26T06:21:21.374Z,101641.34
2022-12-26T06:23:49.926Z,101642.06
2022-12-26T06:26:18.609Z,101651.72
2022-12-26T06:28:47.861Z,101649.72
2022-12-26T06:31:21.088Z,101652.09
2022-12-26T06:33:55.727Z,101646.87
2022-12-26T06:36:25.756Z,101663.19
2022-12-26T06:38:54.252Z,101652.06
2022-12-26T06:41:23.862Z,101656.34
2022-12-26T06:43:56.135Z,101656.38
2022-12-26T06:46:25.671Z,101654.63
2022-12-26T06:48:53.711Z,101659.78
2022-12-26T06:51:26.808Z,101662.38
2022-12-26T06:53:55.793Z,101665.00
2022-12-26T06:56:26.430Z,101666.72
2022-12-26T06:58:55.522Z,101671.00
2022-12-26T07:01:24.908Z,101661.56
2022-12-26T07:03:54.794Z,101661.59
2022-12-26T07:06:31.885Z,101664.19
2022-12-26T07:09:05.638Z,101662.47
2022-12-26T07:11:38.543Z,101672.81
2022-12-26T07:14:06.441Z,101670.28
2022-12-26T07:16:36.160Z,101676.28
2022-12-26T07:19:05.004Z,101678.03
2022-12-26T07:21:39.752Z,101682.41
2022-12-26T07:24:20.274Z,101678.22
2022-12-26T07:26:49.134Z,101671.22
2022-12-26T07:29:17.497Z,101685.88
2022-12-26T07:31:45.616Z,101699.62
2022-12-26T07:34:13.384Z,101697.31
2022-12-26T07:36:41.980Z,101704.91
2022-12-26T07:39:10.007Z,101701.59
2022-12-26T07:41:58.956Z,101702.34
2022-12-26T07:44:32.687Z,101714.25
2022-12-26T07:47:01.316Z,101709.94
2022-12-26T07:49:29.548Z,101707.44
2022-12-26T07:51:58.016Z,101711.72
2022-12-26T07:54:28.524Z,101710.88
2022-12-26T07:57:14.947Z,101711.75
2022-12-26T07:59:45.184Z,101705.75
2022-12-26T08:02:14.482Z,101710.12
2022-12-26T08:04:42.861Z,101704.13
2022-12-26T08:07:10.685Z,101704.13
2022-12-26T08:09:44.987Z,101702.44
2022-12-26T08:12:13.898Z,101700.75
2022-12-26T08:14:44.560Z,101698.19
2022-12-26T08:17:12.498Z,101702.50
2022-12-26T08:19:40.720Z,101704.13
2022-12-26T08:22:11.636Z,101702.41
2022-12-26T08:24:39.513Z,101704.97
2022-12-26T08:27:07.731Z,101704.13
2022-12-26T08:29:38.536Z,101699.81
2022-12-26T08:32:06.364Z,101712.69
2022-12-26T08:34:35.983Z,101709.22
2022-12-26T08:37:03.877Z,101710.12
2022-12-26T08:39:34.605Z,101699.81
2022-12-26T08:42:02.826Z,101706.69
2022-12-26T08:44:30.667Z,101713.59
2022-12-26T08:47:01.595Z,101716.00
2022-12-26T08:49:32.631Z,101723.75
2022-12-26T08:52:03.531Z,101720.41
2022-12-26T08:54:34.860Z,101715.25
2022-12-26T08:57:02.769Z,101722.16
2022-12-26T08:59:30.617Z,101723.84
2022-12-26T09:01:59.202Z,101726.47
2022-12-26T09:04:28.168Z,101725.59
2022-12-26T09:06:56.084Z,101730.72
2022-12-26T09:09:31.536Z,101717.81
2022-12-26T09:11:59.388Z,101723.00
2022-12-26T09:14:27.683Z,101727.31
2022-12-26T09:16:55.620Z,101723.88
2022-12-26T09:19:23.356Z,101724.69
2022-12-26T09:22:14.656Z,101730.66
2022-12-26T09:24:45.392Z,101726.38
2022-12-26T09:27:13.653Z,101729.88
2022-12-26T09:29:41.491Z,101729.91
2022-12-26T09:32:09.522Z,101728.25
2022-12-26T09:34:40.593Z,101726.50
2022-12-26T09:37:09.927Z,101725.59
2022-12-26T09:39:38.299Z,101724.75
2022-12-26T09:42:21.576Z,101710.97
2022-12-26T09:45:12.132Z,101715.25
2022-12-26T09:48:05.252Z,101704.16
2022-12-26T09:50:42.687Z,101715.31
2022-12-26T09:53:36.991Z,101710.16
2022-12-26T09:56:18.410Z,101705.88
2022-12-26T09:59:02.502Z,101709.25
2022-12-26T10:01:35.140Z,101705.81
2022-12-26T10:04:10.078Z,101704.97
2022-12-26T10:06:42.109Z,101704.13
2022-12-26T10:09:35.761Z,101699.88
2022-12-26T10:12:12.666Z,101704.19
2022-12-26T10:15:06.873Z,101693.84
2022-12-26T10:17:41.884Z,101693.06
2022-12-26T10:20:33.325Z,101687.91
2022-12-26T10:23:08.270Z,101688.78
2022-12-26T10:25:51.725Z,101686.19
2022-12-26T10:28:44.704Z,101687.06
2022-12-26T10:31:28.803Z,101675.09
2022-12-26T10:34:16.605Z,101672.50
2022-12-26T10:37:04.854Z,101668.19
2022-12-26T10:39:55.370Z,101669.06
2022-12-26T10:42:38.731Z,101670.78
2022-12-26T10:45:17.251Z,101664.78
2022-12-26T10:47:51.609Z,101657.91
2022-12-26T10:50:38.361Z,101669.94
2022-12-26T10:53:12.768Z,101669.88
2022-12-26T10:55:40.777Z,101655.34
2022-12-26T10:58:20.483Z,101660.50
2022-12-26T11:00:48.457Z,101662.19
2022-12-26T11:03:19.331Z,101662.22
2022-12-26T11:06:13.397Z,101645.09
2022-12-26T11:08:52.164Z,101656.19
2022-12-26T11:11:46.691Z,101660.47
2022-12-26T11:14:33.690Z,101657.09
2022-12-26T11:17:09.179Z,101657.94
2022-12-26T11:19:40.621Z,101662.25
2022-12-26T11:22:27.482Z,101664.84
2022-12-26T11:25:10.808Z,101663.03
2022-12-26T11:27:44.097Z,101669.84
2022-12-26T11:30:15.179Z,101660.41
2022-12-26T11:32:46.440Z,101670.66
2022-12-26T11:35:23.457Z,101672.41
2022-12-26T11:37:57.567Z,101663.03
2022-12-26T11:40:38.781Z,101671.69
2022-12-26T11:43:15.269Z,101670.87
2022-12-26T11:45:50.894Z,101668.22
2022-12-26T11:48:28.432Z,101680.97
2022-12-26T11:50:56.697Z,101679.25
2022-12-26T11:53:24.517Z,101674.06
2022-12-26T11:56:02.383Z,101678.28
2022-12-26T11:58:32.368Z,101670.53
2022-12-26T12:01:00.180Z,101673.31
2022-12-26T12:03:50.243Z,101676.63
2022-12-26T12:06:47.500Z,101679.97
2022-12-26T12:09:44.408Z,101673.94
2022-12-26T12:12:24.405Z,101676.69
2022-12-26T12:15:00.669Z,101679.09
2022-12-26T12:17:44.325Z,101676.63
2022-12-26T12:20:27.457Z,101679.03
2022-12-26T12:23:30.513Z,101677.34
2022-12-26T12:26:26.132Z,101683.38
2022-12-26T12:29:30.976Z,101684.16
2022-12-26T12:32:09.503Z,101672.41
2022-12-26T12:35:09.418Z,101669.75
2022-12-26T12:38:05.473Z,101683.38
2022-12-26T12:41:14.754Z,101675.91
2022-12-26T12:44:01.869Z,101690.19
2022-12-26T12:46:49.797Z,101687.56
2022-12-26T12:49:39.488Z,101689.44
2022-12-26T12:52:31.960Z,101691.37
2022-12-26T12:55:23.742Z,101692.31
2022-12-26T12:58:27.872Z,101682.88
2022-12-26T13:01:18.214Z,101681.16
2022-12-26T13:03:50.564Z,101688.03
2022-12-26T13:06:25.443Z,101673.44
2022-12-26T13:09:01.651Z,101675.16
2022-12-26T13:11:36.699Z,101672.47
2022-12-26T13:14:29.493Z,101679.19
2022-12-26T13:17:05.398Z,101678.28
2022-12-26T13:19:58.514Z,101670.84
2022-12-26T13:23:07.394Z,101665.69
2022-12-26T13:25:44.775Z,101662.16
2022-12-26T13:28:19.477Z,101666.50
2022-12-26T13:30:56.769Z,101669.00
2022-12-26T13:33:25.072Z,101670.81
2022-12-26T13:36:06.610Z,101675.13
2022-12-26T13:38:56.324Z,101671.47
2022-12-26T13:41:45.023Z,101670.81
2022-12-26T13:44:22.146Z,101674.28
2022-12-26T13:46:52.886Z,101675.16
2022-12-26T13:49:40.000Z,101675.13
2022-12-26T13:52:20.273Z,101676.66
2022-12-26T13:54:48.538Z,101674.09
2022-12-26T13:57:34.983Z,101680.16
2022-12-26T14:00:10.859Z,101676.81
2022-12-26T14:03:21.060Z,101679.34
2022-12-26T14:06:12.863Z,101685.47
2022-12-26T14:09:09.128Z,101688.00
2022-12-26T14:12:01.158Z,101684.47
2022-12-26T14:14:53.869Z,101667.41
2022-12-26T14:17:40.487Z,101678.56
2022-12-26T14:20:20.940Z,101677.72
2022-12-26T14:23:06.684Z,101673.34
2022-12-26T14:25:56.292Z,101677.53
2022-12-26T14:28:48.627Z,101676.72
2022-12-26T14:32:00.839Z,101681.16
2022-12-26T14:34:47.432Z,101683.72
2022-12-26T14:37:30.883Z,101674.78
2022-12-26T14:40:19.579Z,101678.31
2022-12-26T14:43:11.386Z,101660.91
2022-12-26T14:45:42.093Z,101674.66
2022-12-26T14:48:17.643Z,101674.75
2022-12-26T14:51:04.412Z,101669.09
2022-12-26T14:53:34.885Z,101668.94
2022-12-26T14:56:11.880Z,101656.22
2022-12-26T14:58:42.731Z,101655.00
2022-12-26T15:01:13.661Z,101657.91
2022-12-26T15:03:48.149Z,101663.72
2022-12-26T15:06:19.211Z,101656.09
2022-12-26T15:09:15.677Z,101651.84
2022-12-26T15:12:32.463Z,101655.25
2022-12-26T15:15:45.163Z,101652.75
2022-12-26T15:18:43.375Z,101652.72
2022-12-26T15:21:36.764Z,101651.06
2022-12-26T15:24:45.409Z,101654.22
2022-12-26T15:27:48.335Z,101652.78
2022-12-26T15:30:47.797Z,101644.06
2022-12-26T15:33:51.448Z,101654.47
2022-12-26T15:36:46.280Z,101644.97
2022-12-26T15:39:32.427Z,101644.94
2022-12-26T15:42:22.558Z,101641.62
2022-12-26T15:45:28.736Z,101647.63
2022-12-26T15:48:25.917Z,101644.16
2022-12-26T15:51:03.400Z,101642.22
2022-12-26T15:53:49.707Z,101636.97
2022-12-26T15:56:41.964Z,101640.16
2022-12-26T15:59:54.442Z,101634.22
2022-12-26T16:02:29.645Z,101634.69
2022-12-26T16:05:20.350Z,101628.75
2022-12-26T16:08:25.538Z,101624.47
2022-12-26T16:11:22.306Z,101625.31
2022-12-26T16:14:02.003Z,101629.50
2022-12-26T16:16:38.683Z,101625.22
2022-12-26T16:19:23.702Z,101624.47
2022-12-26T16:22:20.510Z,101624.22
2022-12-26T16:24:51.790Z,101621.84
2022-12-26T16:27:22.783Z,101626.91
2022-12-26T16:30:11.676Z,101627.00
2022-12-26T16:32:42.763Z,101630.44
2022-12-26T16:35:25.722Z,101632.19
2022-12-26T16:37:57.490Z,101614.97
2022-12-26T16:40:33.640Z,101619.22
2022-12-26T16:43:29.682Z,101615.00
2022-12-26T16:46:02.863Z,101628.72
2022-12-26T16:48:33.533Z,101609.72
2022-12-26T16:51:08.333Z,101611.38
2022-12-26T16:53:39.591Z,101608.88
2022-12-26T16:56:31.533Z,101606.28
2022-12-26T16:59:17.290Z,101606.09
2022-12-26T17:02:00.848Z,101610.50
2022-12-26T17:04:31.091Z,101608.81
2022-12-26T17:07:09.562Z,101606.91
2022-12-26T17:09:45.579Z,101606.00
2022-12-26T17:12:31.367Z,101603.75
2022-12-26T17:15:03.971Z,101592.59
2022-12-26T17:17:38.329Z,101604.62
2022-12-26T17:20:29.750Z,101602.78
2022-12-26T17:22:58.399Z,101609.50
2022-12-26T17:25:33.846Z,101598.66
2022-12-26T17:28:23.010Z,101599.50
2022-12-26T17:30:55.387Z,101587.53
2022-12-26T17:33:26.820Z,101588.28
2022-12-26T17:38:53.305Z,101583.94
2022-12-26T17:41:21.724Z,101585.78
2022-12-26T17:43:50.703Z,101590.06
2022-12-26T17:46:18.995Z,101580.62
2022-12-26T17:48:47.884Z,101582.34
2022-12-26T17:51:18.282Z,101584.94
2022-12-26T17:53:51.392Z,101573.63
2022-12-26T17:56:27.572Z,101576.34
2022-12-26T17:58:55.969Z,101578.91
2022-12-26T18:01:24.314Z,101578.06
2022-12-26T18:03:53.261Z,101576.22
2022-12-26T18:06:22.165Z,101575.38
2022-12-26T18:08:50.088Z,101578.91
2022-12-26T18:11:18.310Z,101554.91
2022-12-26T18:13:46.251Z,101560.78
2022-12-26T18:16:20.060Z,101560.00
2022-12-26T18:18:48.922Z,101558.31
2022-12-26T18:21:17.157Z,101565.19
2022-12-26T18:23:45.049Z,101574.47
2022-12-26T18:26:29.034Z,101559.88
2022-12-26T18:28:58.025Z,101563.38
2022-12-26T18:31:28.214Z,101569.50
2022-12-26T18:33:56.239Z,101565.09
2022-12-26T18:36:30.658Z,101569.44
2022-12-26T18:38:59.274Z,101545.22
2022-12-26T18:41:30.034Z,101566.91
2022-12-26T18:43:58.628Z,101558.34
2022-12-26T18:46:28.272Z,101558.06
2022-12-26T18:48:57.765Z,101557.88
2022-12-26T18:51:28.175Z,101556.59
2022-12-26T18:53:58.919Z,101542.00
2022-12-26T18:56:30.421Z,101535.91
2022-12-26T18:58:58.418Z,101537.72
2022-12-26T19:01:26.762Z,101542.00
2022-12-26T19:03:55.339Z,101542.88
2022-12-26T19:06:26.516Z,101540.28
2022-12-26T19:08:58.808Z,101533.31
2022-12-26T19:11:27.025Z,101541.87
2022-12-26T19:13:54.732Z,101536.69
2022-12-26T19:16:23.445Z,101538.56
2022-12-26T19:18:51.872Z,101540.28
2022-12-26T19:21:23.518Z,101535.97
2022-12-26T19:23:51.861Z,101541.63
2022-12-26T19:26:20.441Z,101544.31
2022-12-26T19:28:56.238Z,101535.00
2022-12-26T19:31:24.815Z,101534.19
2022-12-26T19:33:59.182Z,101533.22
2022-12-26T19:36:27.409Z,101543.69
2022-12-26T19:38:55.418Z,101531.53
2022-12-26T19:41:23.340Z,101545.41
2022-12-26T19:43:59.918Z,101534.28
2022-12-26T19:46:28.768Z,101532.56
2022-12-26T19:48:57.058Z,101525.69
2022-12-26T19:51:24.815Z,101529.97
2022-12-26T19:53:55.848Z,101525.66
2022-12-26T19:56:27.606Z,101526.50
2022-12-26T19:58:57.015Z,101518.81
2022-12-26T20:01:28.062Z,101506.81
2022-12-26T20:04:02.276Z,101512.81
2022-12-26T20:06:32.765Z,101513.69
2022-12-26T20:09:08.992Z,101511.94
2022-12-26T20:11:39.903Z,101509.38
2022-12-26T20:14:11.156Z,101511.94
2022-12-26T20:17:04.891Z,101510.25
2022-12-26T20:19:28.369Z,101501.66
2022-12-26T20:21:59.313Z,101504.22
2022-12-26T20:24:27.493Z,101495.47
2022-12-26T20:26:55.413Z,101498.22
2022-12-26T20:29:23.230Z,101499.06
2022-12-26T20:31:55.776Z,101491.97
2022-12-26T20:34:23.865Z,101478.38
2022-12-26T20:36:52.177Z,101492.22
2022-12-26T20:39:24.002Z,101488.78
2022-12-26T20:41:52.246Z,101479.34
2022-12-26T20:44:20.319Z,101479.34
2022-12-26T20:46:48.465Z,101481.91
2022-12-26T20:49:16.895Z,101481.91
2022-12-26T20:51:45.954Z,101478.47
2022-12-26T20:54:15.709Z,101481.00
2022-12-26T20:56:44.187Z,101478.47
2022-12-26T20:59:15.216Z,101462.16
2022-12-26T21:01:43.625Z,101463.06
2022-12-26T21:04:19.188Z,101464.75
2022-12-26T21:06:48.127Z,101469.91
2022-12-26T21:09:16.123Z,101467.31
2022-12-26T21:11:45.844Z,101473.28
2022-12-26T21:14:19.779Z,101471.53
2022-12-26T21:16:53.826Z,101468.13
2022-12-26T21:19:27.356Z,101471.56
2022-12-26T21:21:56.276Z,101474.19
2022-12-26T21:24:26.556Z,101469.84
2022-12-26T21:26:55.224Z,101473.34
2022-12-26T21:29:26.550Z,101476.75
2022-12-26T21:31:55.790Z,101472.47
2022-12-26T21:34:25.536Z,101477.63
2022-12-26T21:37:12.972Z,101473.31
2022-12-26T21:39:41.974Z,101475.06
2022-12-26T21:42:10.408Z,101470.75
2022-12-26T21:44:38.302Z,101478.47
2022-12-26T21:47:08.403Z,101475.91
2022-12-26T21:49:37.572Z,101469.81
2022-12-26T21:52:07.134Z,101468.13
2022-12-26T21:54:53.702Z,101463.06
2022-12-26T21:57:22.159Z,101457.75
2022-12-26T21:59:56.624Z,101464.63
2022-12-26T22:02:54.780Z,101459.56
2022-12-26T22:05:26.218Z,101457.78
2022-12-26T22:07:56.276Z,101452.69
2022-12-26T22:10:44.993Z,101456.91
2022-12-26T22:13:12.912Z,101452.53
2022-12-26T22:16:03.403Z,101455.22
2022-12-26T22:18:41.879Z,101444.00
2022-12-26T22:21:21.830Z,101449.09
2022-12-26T22:23:53.072Z,101447.56
2022-12-26T22:26:23.080Z,101439.00
2022-12-26T22:28:51.053Z,101434.59
2022-12-26T22:31:22.646Z,101438.97
2022-12-26T22:34:02.717Z,101426.87
2022-12-26T22:36:31.794Z,101432.12
2022-12-26T22:39:00.555Z,101424.38
2022-12-26T22:41:29.078Z,101430.44
2022-12-26T22:43:57.255Z,101424.41
2022-12-26T22:46:25.984Z,101421.69
2022-12-26T22:48:56.833Z,101416.69
2022-12-26T22:51:28.218Z,101423.56
2022-12-26T22:53:58.526Z,101425.28
2022-12-26T22:56:28.229Z,101422.66
2022-12-26T22:59:00.848Z,101412.41
2022-12-26T23:01:29.581Z,101412.38
2022-12-26T23:03:57.781Z,101418.41
2022-12-26T23:06:33.372Z,101424.41
2022-12-26T23:09:07.362Z,101408.12
2022-12-26T23:11:35.869Z,101415.84
2022-12-26T23:14:08.794Z,101411.56
2022-12-26T23:16:51.318Z,101405.50
2022-12-26T23:20:05.408Z,101390.97
2022-12-26T23:22:33.517Z,101397.81
2022-12-26T23:25:04.919Z,101386.69
2022-12-26T23:27:51.002Z,101393.53
2022-12-26T23:30:19.301Z,101372.09
2022-12-26T23:32:50.605Z,101378.09
2022-12-26T23:35:20.077Z,101372.13
2022-12-26T23:37:48.662Z,101359.22
2022-12-26T23:40:17.776Z,101361.81
2022-12-26T23:42:46.035Z,101356.66
2022-12-26T23:45:15.445Z,101360.09
2022-12-26T23:47:45.037Z,101360.09
2022-12-26T23:50:14.880Z,101358.38
2022-12-26T23:52:44.343Z,101367.81
2022-12-26T23:55:13.205Z,101363.53
2022-12-26T23:57:41.067Z,101360.97
